Time;durP1;ratioP1;P1;durP2;ratioP2;P2;SDS_P1;SDS_P2;PMS_P1;PMS_P2;Temp;Humidity;BMP_temperature;BMP_pressure;BME280_temperature;BME280_humidity;BME280_pressure;Samples;Min_cycle;Max_cycle;Signal;HPM_P1;HPM_P2
2021/12/05 00:24:19;;;;;;;;;0.00;0.00;;;;;;;;5095422;27;45405;-74
2021/12/05 00:26:38;;;;;;;;;0.00;0.00;;;;;;;;5082099;27;45905;-74
2021/12/05 00:29:11;;;;;;;;;1.25;0.00;;;;;;;;5082706;27;45412;-74
2021/12/05 00:32:01;;;;;;;;;1.00;0.00;;;;;;;;5085337;27;45283;-74
2021/12/05 00:40:26;;;;;;;;;0.00;0.00;;;;;;;;5091668;27;45462;-73
2021/12/05 00:45:48;;;;;;;;;1.00;0.00;;;;;;;;5087482;27;45324;-73
2021/12/05 00:51:18;;;;;;;;;0.00;0.00;;;;;;;;5092376;27;45694;-73
2021/12/05 00:59:36;;;;;;;;;0.75;0.75;;;;;;;;5095821;27;45643;-73
2021/12/05 01:07:38;;;;;;;;;1.00;1.00;;;;;;;;5089465;27;46490;-74
2021/12/05 01:15:46;;;;;;;;;1.50;0.50;;;;;;;;5031770;28;45507;-73
2021/12/05 01:18:16;;;;;;;;;0.75;0.00;;;;;;;;5020149;28;45416;-74
2021/12/05 01:20:44;;;;;;;;;0.00;0.00;;;;;;;;5015258;28;47589;-73
2021/12/05 01:23:26;;;;;;;;;5.50;1.00;;;;;;;;5047325;28;45501;-73
2021/12/05 01:26:01;;;;;;;;;0.00;0.00;;;;;;;;5051340;28;45456;-73
2021/12/05 01:34:13;;;;;;;;;0.00;0.00;;;;;;;;5011558;28;45593;-74
2021/12/05 01:40:29;;;;;;;;;0.00;0.00;;;;;;;;5011859;28;45530;-73
2021/12/05 01:58:16;;;;;;;;;0.00;0.00;;;;;;;;5002980;28;45489;-73
2021/12/05 02:09:05;;;;;;;;;1.00;0.00;;;;;;;;5011271;28;45406;-74
2021/12/05 02:11:38;;;;;;;;;0.75;0.75;;;;;;;;5087660;27;45539;-74
2021/12/05 02:33:10;;;;;;;;;0.00;0.00;;;;;;;;5115335;27;45263;-74
2021/12/05 02:36:07;;;;;;;;;0.00;0.00;;;;;;;;5115764;27;45359;-73
2021/12/05 02:39:07;;;;;;;;;0.00;0.00;;;;;;;;5117536;27;45396;-74
2021/12/05 02:44:12;;;;;;;;;0.00;0.00;;;;;;;;5111857;27;45455;-74
2021/12/05 02:46:30;;;;;;;;;2.00;0.00;;;;;;;;5113286;27;45504;-74
2021/12/05 02:49:00;;;;;;;;;2.00;1.00;;;;;;;;5096127;27;45410;-74
2021/12/05 02:51:27;;;;;;;;;0.75;0.00;;;;;;;;5095774;27;45503;-73
2021/12/05 02:54:04;;;;;;;;;3.00;0.00;;;;;;;;5116359;27;45281;-73
2021/12/05 02:56:32;;;;;;;;;0.00;0.00;;;;;;;;5095416;27;47138;-73
2021/12/05 02:59:04;;;;;;;;;0.00;0.00;;;;;;;;5095120;27;45475;-73
2021/12/05 03:01:42;;;;;;;;;0.00;0.00;;;;;;;;5096118;27;45553;-72
2021/12/05 03:04:08;;;;;;;;;0.00;0.00;;;;;;;;5113489;27;45498;-73
2021/12/05 03:06:35;;;;;;;;;0.00;0.00;;;;;;;;5093762;27;47484;-72
2021/12/05 03:09:04;;;;;;;;;0.00;0.00;;;;;;;;5091330;27;45464;-73
2021/12/05 03:11:30;;;;;;;;;0.25;0.00;;;;;;;;5097689;27;45495;-73
2021/12/05 03:13:56;;;;;;;;;0.00;0.00;;;;;;;;5089311;27;45448;-73
2021/12/05 03:16:22;;;;;;;;;0.00;0.00;;;;;;;;5113349;27;46231;-74
2021/12/05 03:18:47;;;;;;;;;3.00;0.00;;;;;;;;5112868;27;45482;-72
2021/12/05 03:21:13;;;;;;;;;0.00;0.00;;;;;;;;5095590;27;45803;-71
2021/12/05 03:23:40;;;;;;;;;0.25;0.25;;;;;;;;5083987;27;45479;-73
2021/12/05 03:26:06;;;;;;;;;0.25;0.00;;;;;;;;5086119;27;48286;-71
2021/12/05 03:28:31;;;;;;;;;0.00;0.00;;;;;;;;5092317;27;46263;-72
2021/12/05 03:30:57;;;;;;;;;0.00;0.00;;;;;;;;5093449;27;45291;-73
2021/12/05 03:33:22;;;;;;;;;0.00;0.00;;;;;;;;5110487;27;45380;-73
2021/12/05 03:35:47;;;;;;;;;0.00;0.00;;;;;;;;5080639;27;48223;-73
2021/12/05 03:38:13;;;;;;;;;0.00;0.00;;;;;;;;5095383;27;45640;-73
2021/12/05 03:40:38;;;;;;;;;2.00;0.00;;;;;;;;5107848;27;45570;-73
2021/12/05 03:43:05;;;;;;;;;0.75;0.00;;;;;;;;5108631;27;45398;-73
2021/12/05 03:45:33;;;;;;;;;0.00;0.00;;;;;;;;5085895;27;47372;-70
2021/12/05 03:47:58;;;;;;;;;3.00;0.00;;;;;;;;5081078;27;46030;-73
2021/12/05 03:50:24;;;;;;;;;0.00;0.00;;;;;;;;5113397;27;45430;-72
2021/12/05 03:52:49;;;;;;;;;0.00;0.00;;;;;;;;5111103;27;46105;-73
2021/12/05 03:55:15;;;;;;;;;0.00;0.00;;;;;;;;5092725;27;47389;-74
2021/12/05 03:57:41;;;;;;;;;0.00;0.00;;;;;;;;5096439;27;46508;-73
2021/12/05 04:00:12;;;;;;;;;3.75;0.00;;;;;;;;5080146;27;45352;-73
2021/12/05 04:02:37;;;;;;;;;0.00;0.00;;;;;;;;5082179;27;45623;-72
2021/12/05 04:05:03;;;;;;;;;0.00;0.00;;;;;;;;5102626;27;46368;-71
2021/12/05 04:07:28;;;;;;;;;0.00;0.00;;;;;;;;5081764;27;46588;-72
2021/12/05 04:09:53;;;;;;;;;0.00;0.00;;;;;;;;5102568;27;45370;-73
2021/12/05 04:12:19;;;;;;;;;0.00;0.00;;;;;;;;5113557;27;45384;-73
2021/12/05 04:14:45;;;;;;;;;0.75;0.00;;;;;;;;5113857;27;45281;-72
2021/12/05 04:17:12;;;;;;;;;0.00;0.00;;;;;;;;5112632;27;45288;-73
2021/12/05 04:19:38;;;;;;;;;0.00;0.00;;;;;;;;5105651;27;45286;-74
2021/12/05 04:22:04;;;;;;;;;0.00;0.00;;;;;;;;5082628;27;46788;-74
2021/12/05 04:24:30;;;;;;;;;0.00;0.00;;;;;;;;5080259;27;47294;-72
2021/12/05 04:26:55;;;;;;;;;0.00;0.00;;;;;;;;5098375;27;45348;-73
2021/12/05 04:29:21;;;;;;;;;0.00;0.00;;;;;;;;5083481;27;45331;-74
2021/12/05 04:31:46;;;;;;;;;0.00;0.00;;;;;;;;5101565;27;45563;-72
2021/12/05 04:34:12;;;;;;;;;0.00;0.00;;;;;;;;5083591;27;47471;-72
2021/12/05 04:36:38;;;;;;;;;0.00;0.00;;;;;;;;5082937;27;46111;-73
2021/12/05 04:39:04;;;;;;;;;1.00;0.00;;;;;;;;5079487;27;45538;-73
2021/12/05 04:41:29;;;;;;;;;0.00;0.00;;;;;;;;5113170;27;45402;-73
2021/12/05 04:43:55;;;;;;;;;0.00;0.00;;;;;;;;5083503;27;47999;-73
2021/12/05 04:46:23;;;;;;;;;0.50;0.00;;;;;;;;5102020;27;45479;-73
2021/12/05 04:48:50;;;;;;;;;0.00;0.00;;;;;;;;5083798;27;45417;-73
2021/12/05 04:51:16;;;;;;;;;0.00;0.00;;;;;;;;5080805;27;45741;-73
2021/12/05 04:53:41;;;;;;;;;0.00;0.00;;;;;;;;5080955;27;47198;-72
2021/12/05 04:56:07;;;;;;;;;0.00;0.00;;;;;;;;5083559;27;46170;-73
2021/12/05 04:58:32;;;;;;;;;0.00;0.00;;;;;;;;5084884;27;45480;-73
2021/12/05 05:00:58;;;;;;;;;0.00;0.00;;;;;;;;5102211;27;45461;-74
2021/12/05 05:03:24;;;;;;;;;0.00;0.00;;;;;;;;5098956;27;45987;-74
2021/12/05 05:05:56;;;;;;;;;0.00;0.00;;;;;;;;5080563;27;46380;-73
2021/12/05 05:08:22;;;;;;;;;0.50;0.00;;;;;;;;5101169;27;45385;-73
2021/12/05 05:10:47;;;;;;;;;1.00;0.00;;;;;;;;5110142;27;45559;-73
2021/12/05 05:13:12;;;;;;;;;0.00;0.00;;;;;;;;5109771;27;45975;-73
2021/12/05 05:15:38;;;;;;;;;1.00;0.00;;;;;;;;5109738;27;45387;-72
2021/12/05 05:18:05;;;;;;;;;1.00;0.50;;;;;;;;5096261;27;45487;-73
2021/12/05 05:20:48;;;;;;;;;0.00;0.00;;;;;;;;5090909;27;45607;-73
2021/12/05 05:26:24;;;;;;;;;0.00;0.00;;;;;;;;5101410;27;45290;-72
2021/12/05 05:47:14;;;;;;;;;0.00;0.00;;;;;;;;5110866;27;45311;-73
2021/12/05 05:50:00;;;;;;;;;0.50;0.00;;;;;;;;5112597;27;45447;-72
2021/12/05 05:52:26;;;;;;;;;0.00;0.00;;;;;;;;5112384;27;45490;-73
2021/12/05 05:54:54;;;;;;;;;0.25;0.00;;;;;;;;5095798;27;47394;-72
2021/12/05 05:57:43;;;;;;;;;1.00;0.00;;;;;;;;5083947;27;45613;-73
2021/12/05 06:00:14;;;;;;;;;0.25;0.00;;;;;;;;5101286;27;45344;-71
2021/12/05 06:05:24;;;;;;;;;0.00;0.00;;;;;;;;5112259;27;45257;-71
2021/12/05 06:07:50;;;;;;;;;1.00;0.00;;;;;;;;5112740;27;45362;-71
2021/12/05 06:10:19;;;;;;;;;0.75;0.25;;;;;;;;5113488;27;45348;-74
2021/12/05 06:12:45;;;;;;;;;0.25;0.25;;;;;;;;5112745;27;45468;-73
2021/12/05 06:15:12;;;;;;;;;0.00;0.00;;;;;;;;5116515;27;46384;-72
2021/12/05 06:17:38;;;;;;;;;3.00;0.25;;;;;;;;5113206;27;45371;-73
2021/12/05 06:20:10;;;;;;;;;0.00;0.00;;;;;;;;5113184;27;45515;-72
2021/12/05 06:22:35;;;;;;;;;0.00;0.00;;;;;;;;5093926;27;45471;-72
2021/12/05 06:25:02;;;;;;;;;0.00;0.00;;;;;;;;5094144;27;47221;-72
2021/12/05 06:27:28;;;;;;;;;0.00;0.00;;;;;;;;5113467;27;45720;-73
2021/12/05 06:30:08;;;;;;;;;0.00;0.00;;;;;;;;5116270;27;45376;-70
2021/12/05 06:38:42;;;;;;;;;0.00;0.00;;;;;;;;5035712;28;45366;-74
2021/12/05 06:46:24;;;;;;;;;0.00;0.00;;;;;;;;5035292;28;45993;-74
2021/12/05 06:48:49;;;;;;;;;0.00;0.00;;;;;;;;5018207;28;45474;-71
2021/12/05 06:51:17;;;;;;;;;0.00;0.00;;;;;;;;5022445;28;45514;-71
2021/12/05 06:53:43;;;;;;;;;0.00;0.00;;;;;;;;5048737;28;45240;-73
2021/12/05 06:56:08;;;;;;;;;1.50;0.00;;;;;;;;5040930;28;45647;-75
2021/12/05 06:58:34;;;;;;;;;2.00;0.25;;;;;;;;5019011;28;45462;-74
2021/12/05 07:01:01;;;;;;;;;1.50;0.00;;;;;;;;5017874;28;45479;-75
2021/12/05 07:03:26;;;;;;;;;0.00;0.00;;;;;;;;5035764;28;45471;-75
2021/12/05 07:06:12;;;;;;;;;0.00;0.00;;;;;;;;5053572;27;45602;-75
2021/12/05 07:08:40;;;;;;;;;0.00;0.00;;;;;;;;5114878;27;45443;-75
2021/12/05 07:26:29;;;;;;;;;0.00;0.00;;;;;;;;5103766;27;45794;-77
2021/12/05 07:42:38;;;;;;;;;0.00;0.00;;;;;;;;5106651;27;45414;-76
2021/12/05 07:45:06;;;;;;;;;0.00;0.00;;;;;;;;5080590;27;45460;-75
2021/12/05 07:47:34;;;;;;;;;0.00;0.00;;;;;;;;5092169;27;47549;-75
2021/12/05 07:50:09;;;;;;;;;0.75;0.00;;;;;;;;5102042;27;45488;-75
2021/12/05 07:52:35;;;;;;;;;0.00;0.00;;;;;;;;5083764;27;45357;-75
2021/12/05 07:55:12;;;;;;;;;0.00;0.00;;;;;;;;5101237;27;45459;-76
2021/12/05 08:01:20;;;;;;;;;2.00;0.25;;;;;;;;5113744;27;45427;-76
2021/12/05 08:16:51;;;;;;;;;4.25;2.75;;;;;;;;5104828;27;45482;-76
2021/12/05 08:19:18;;;;;;;;;4.50;4.50;;;;;;;;5087701;27;47524;-75
2021/12/05 08:21:43;;;;;;;;;4.50;3.00;;;;;;;;5092058;27;45443;-77
2021/12/05 08:24:09;;;;;;;;;6.00;6.00;;;;;;;;5095739;27;45376;-75
2021/12/05 08:26:35;;;;;;;;;14.00;13.75;;;;;;;;5093183;27;45539;-76
2021/12/05 08:44:51;;;;;;;;;8.50;3.00;;;;;;;;5101460;27;45523;-76
2021/12/05 09:23:00;;;;;;;;;8.25;6.25;;;;;;;;5109525;27;45423;-74
2021/12/05 10:03:09;;;;;;;;;20.25;16.75;;;;;;;;5057846;28;45544;-75
2021/12/05 10:11:25;;;;;;;;;7.00;6.50;;;;;;;;5107832;27;45408;-76
2021/12/05 10:14:48;;;;;;;;;8.50;8.50;;;;;;;;5099597;27;45210;-77
2021/12/05 10:16:54;;;;;;;;;6.75;6.75;;;;;;;;5082554;27;45373;-74
2021/12/05 10:38:41;;;;;;;;;14.50;12.00;;;;;;;;5114861;27;45587;-77
2021/12/05 10:42:24;;;;;;;;;9.25;7.00;;;;;;;;5111710;27;45958;-76
2021/12/05 10:44:08;;;;;;;;;5.50;5.50;;;;;;;;5091436;27;45640;-76
2021/12/05 10:46:34;;;;;;;;;9.00;9.00;;;;;;;;5108721;27;45331;-75
2021/12/05 10:49:03;;;;;;;;;3.00;3.00;;;;;;;;5105167;27;45665;-74
2021/12/05 10:51:43;;;;;;;;;0.00;0.00;;;;;;;;5093852;27;45834;-77
2021/12/05 10:54:10;;;;;;;;;10.50;8.75;;;;;;;;5083305;27;45760;-76
2021/12/05 10:56:43;;;;;;;;;4.00;4.00;;;;;;;;5108138;27;45510;-76
2021/12/05 10:59:13;;;;;;;;;4.50;2.00;;;;;;;;5113376;27;46187;-76
2021/12/05 11:01:42;;;;;;;;;4.00;3.25;;;;;;;;5082412;27;45433;-74
2021/12/05 11:04:13;;;;;;;;;3.50;2.50;;;;;;;;5086667;27;45416;-76
2021/12/05 11:06:40;;;;;;;;;2.00;2.00;;;;;;;;5087246;27;45601;-75
2021/12/05 11:09:10;;;;;;;;;4.00;4.00;;;;;;;;5097101;27;46252;-75
2021/12/05 11:11:37;;;;;;;;;4.00;3.00;;;;;;;;5107754;27;45431;-76
2021/12/05 11:14:03;;;;;;;;;4.25;1.75;;;;;;;;5100601;27;45531;-75
2021/12/05 11:16:36;;;;;;;;;3.25;3.00;;;;;;;;5107972;27;45553;-78
2021/12/05 11:19:08;;;;;;;;;8.00;7.75;;;;;;;;5106091;27;46051;-76
2021/12/05 11:21:35;;;;;;;;;6.00;5.25;;;;;;;;5105338;27;45485;-76
2021/12/05 11:24:04;;;;;;;;;2.25;2.00;;;;;;;;5113963;27;45397;-77
2021/12/05 11:26:30;;;;;;;;;4.00;2.00;;;;;;;;5090421;27;45658;-76
2021/12/05 11:28:55;;;;;;;;;4.25;2.75;;;;;;;;5092648;27;47741;-77
2021/12/05 11:31:28;;;;;;;;;4.00;2.00;;;;;;;;5088923;27;45534;-78
2021/12/05 11:33:55;;;;;;;;;2.25;2.25;;;;;;;;5086651;27;45436;-78
2021/12/05 11:36:29;;;;;;;;;3.00;3.00;;;;;;;;5113222;27;45467;-76
2021/12/05 11:38:55;;;;;;;;;2.00;2.00;;;;;;;;5102274;27;46352;-77
2021/12/05 11:41:22;;;;;;;;;1.00;1.00;;;;;;;;5093594;27;45902;-75
2021/12/05 11:43:56;;;;;;;;;1.25;1.25;;;;;;;;5101522;27;45455;-75
2021/12/05 11:46:29;;;;;;;;;1.25;1.25;;;;;;;;5104611;27;45632;-75
2021/12/05 11:48:57;;;;;;;;;3.50;2.50;;;;;;;;5103437;27;48607;-74
2021/12/05 11:51:28;;;;;;;;;3.00;1.00;;;;;;;;5084547;27;45543;-73
2021/12/05 11:54:09;;;;;;;;;1.00;1.00;;;;;;;;5111901;27;45325;-74
2021/12/05 11:56:34;;;;;;;;;0.00;0.00;;;;;;;;5090923;27;45493;-72
2021/12/05 11:59:10;;;;;;;;;1.25;1.00;;;;;;;;5108010;27;45497;-71
2021/12/05 12:01:41;;;;;;;;;0.00;0.00;;;;;;;;5085946;27;45958;-68
2021/12/05 12:04:07;;;;;;;;;8.75;8.75;;;;;;;;5104571;27;45518;-70
2021/12/05 12:06:32;;;;;;;;;4.50;2.00;;;;;;;;5088628;27;45377;-74
2021/12/05 12:08:57;;;;;;;;;2.25;2.25;;;;;;;;5099362;27;46216;-73
2021/12/05 12:11:23;;;;;;;;;3.00;3.00;;;;;;;;5109901;27;45496;-73
2021/12/05 12:13:50;;;;;;;;;21.75;17.00;;;;;;;;5084834;27;45400;-75
2021/12/05 12:16:16;;;;;;;;;13.25;13.25;;;;;;;;5093975;27;45363;-75
2021/12/05 12:18:44;;;;;;;;;7.50;6.00;;;;;;;;5096701;27;45373;-76
2021/12/05 12:21:21;;;;;;;;;4.00;4.00;;;;;;;;5095582;27;45600;-75
2021/12/05 12:23:48;;;;;;;;;27.25;24.75;;;;;;;;5117370;27;45372;-75
2021/12/05 12:26:14;;;;;;;;;3.00;3.00;;;;;;;;5103181;27;44965;-73
2021/12/05 12:28:39;;;;;;;;;1.50;1.00;;;;;;;;5106225;27;45493;-75
2021/12/05 12:31:11;;;;;;;;;2.50;2.00;;;;;;;;5115078;27;45230;-74
2021/12/05 12:33:51;;;;;;;;;9.00;8.00;;;;;;;;5090852;27;45498;-71
2021/12/05 12:36:29;;;;;;;;;5.00;5.00;;;;;;;;5090325;27;45560;-74
2021/12/05 12:38:55;;;;;;;;;4.50;4.50;;;;;;;;5084504;27;48179;-73
2021/12/05 12:41:23;;;;;;;;;7.50;6.50;;;;;;;;5103279;27;45342;-74
2021/12/05 12:43:48;;;;;;;;;6.75;6.00;;;;;;;;5086641;27;45441;-74
2021/12/05 12:46:20;;;;;;;;;4.00;4.00;;;;;;;;5090308;27;45677;-74
2021/12/05 12:48:46;;;;;;;;;7.00;7.00;;;;;;;;5096348;27;48698;-74
2021/12/05 12:51:32;;;;;;;;;5.00;3.00;;;;;;;;5094158;27;45471;-74
2021/12/05 12:54:01;;;;;;;;;12.00;10.50;;;;;;;;5094296;27;45745;-74
2021/12/05 12:56:27;;;;;;;;;6.75;6.75;;;;;;;;5109480;27;45216;-73
2021/12/05 12:59:01;;;;;;;;;4.00;4.00;;;;;;;;5109634;27;45657;-74
2021/12/05 13:10:11;;;;;;;;;2.75;1.75;;;;;;;;5113726;27;45407;-74
2021/12/05 13:12:40;;;;;;;;;4.00;2.25;;;;;;;;5092264;27;45570;-72
2021/12/05 13:15:08;;;;;;;;;8.25;8.25;;;;;;;;5101037;27;45405;-73
2021/12/05 13:17:40;;;;;;;;;8.25;8.25;;;;;;;;5102376;27;45510;-74
2021/12/05 13:20:06;;;;;;;;;6.00;6.00;;;;;;;;5101006;27;46750;-72
2021/12/05 13:22:31;;;;;;;;;5.75;4.75;;;;;;;;5102912;27;45640;-73
2021/12/05 13:25:07;;;;;;;;;9.00;9.00;;;;;;;;5090418;27;45433;-72
2021/12/05 13:27:32;;;;;;;;;6.00;6.00;;;;;;;;5085454;27;45419;-71
2021/12/05 13:29:58;;;;;;;;;9.00;9.00;;;;;;;;5087219;27;47579;-72
2021/12/05 13:32:29;;;;;;;;;8.00;8.00;;;;;;;;5092158;27;46167;-73
2021/12/05 13:34:59;;;;;;;;;4.00;4.00;;;;;;;;5089759;27;45519;-72
2021/12/05 13:37:27;;;;;;;;;6.00;6.00;;;;;;;;5086909;27;46513;-74
2021/12/05 13:39:52;;;;;;;;;5.50;5.50;;;;;;;;5086247;27;47665;-73
2021/12/05 13:42:27;;;;;;;;;7.00;7.00;;;;;;;;5082787;27;45448;-74
2021/12/05 13:44:58;;;;;;;;;6.25;5.00;;;;;;;;5081646;27;45525;-73
2021/12/05 13:47:29;;;;;;;;;5.00;5.00;;;;;;;;5090818;27;45369;-74
2021/12/05 13:49:56;;;;;;;;;5.75;3.50;;;;;;;;5112296;27;45529;-73
2021/12/05 13:52:36;;;;;;;;;3.00;3.00;;;;;;;;5103099;27;45396;-76
2021/12/05 13:55:21;;;;;;;;;3.00;3.00;;;;;;;;5100335;27;45529;-74
2021/12/05 13:58:04;;;;;;;;;5.75;5.75;;;;;;;;5097317;27;45424;-75
2021/12/05 14:00:40;;;;;;;;;10.75;9.50;;;;;;;;5089857;27;48307;-75
2021/12/05 14:03:05;;;;;;;;;5.50;5.50;;;;;;;;5085374;27;45573;-75
2021/12/05 14:05:31;;;;;;;;;8.50;4.75;;;;;;;;5085082;27;45456;-75
2021/12/05 14:07:56;;;;;;;;;6.25;6.25;;;;;;;;5083772;27;45333;-74
2021/12/05 14:10:21;;;;;;;;;1.00;1.00;;;;;;;;5092149;27;47516;-73
2021/12/05 14:12:47;;;;;;;;;2.50;2.50;;;;;;;;5114651;27;45597;-70
2021/12/05 14:15:13;;;;;;;;;5.50;5.00;;;;;;;;5113135;27;45540;-72
2021/12/05 14:17:41;;;;;;;;;4.25;4.25;;;;;;;;5116216;27;45467;-73
2021/12/05 14:20:07;;;;;;;;;17.50;11.75;;;;;;;;5096548;27;46415;-74
2021/12/05 14:22:34;;;;;;;;;11.00;9.75;;;;;;;;5114773;27;45563;-72
2021/12/05 14:25:01;;;;;;;;;5.00;5.00;;;;;;;;5116315;27;45414;-73
2021/12/05 14:27:30;;;;;;;;;20.00;18.75;;;;;;;;5116787;27;45458;-72
2021/12/05 14:29:55;;;;;;;;;24.75;24.25;;;;;;;;5109510;27;46415;-72
2021/12/05 14:32:22;;;;;;;;;8.50;7.75;;;;;;;;5105287;27;45532;-74
2021/12/05 14:34:52;;;;;;;;;10.00;9.00;;;;;;;;5105174;27;45465;-73
2021/12/05 14:37:19;;;;;;;;;4.00;4.00;;;;;;;;5099431;27;45724;-68
2021/12/05 14:39:46;;;;;;;;;15.25;15.25;;;;;;;;5100704;27;45927;-68
2021/12/05 14:42:16;;;;;;;;;36.25;33.25;;;;;;;;5104754;27;45476;-70
2021/12/05 14:44:41;;;;;;;;;9.00;9.00;;;;;;;;5112948;27;45378;-70
2021/12/05 14:47:11;;;;;;;;;10.50;9.00;;;;;;;;5115020;27;45347;-70
2021/12/05 14:49:40;;;;;;;;;14.00;13.50;;;;;;;;5105526;27;46560;-72
2021/12/05 14:52:25;;;;;;;;;14.00;13.00;;;;;;;;5104277;27;45393;-70
2021/12/05 14:54:51;;;;;;;;;7.00;7.00;;;;;;;;5083971;27;45487;-70
2021/12/05 14:57:18;;;;;;;;;9.50;8.25;;;;;;;;5104287;27;45557;-75
2021/12/05 14:59:45;;;;;;;;;15.25;14.25;;;;;;;;5091130;27;48554;-69
2021/12/05 15:02:10;;;;;;;;;3.50;2.50;;;;;;;;5109103;27;45492;-72
2021/12/05 15:04:46;;;;;;;;;7.75;7.00;;;;;;;;5103280;27;45618;-73
2021/12/05 15:07:12;;;;;;;;;11.00;10.50;;;;;;;;5106146;27;45415;-73
2021/12/05 15:09:37;;;;;;;;;8.00;8.00;;;;;;;;5097442;27;48344;-69
2021/12/05 15:12:08;;;;;;;;;5.50;4.25;;;;;;;;5102014;27;45520;-71
2021/12/05 15:14:35;;;;;;;;;7.00;5.25;;;;;;;;5104759;27;45426;-69
2021/12/05 15:17:00;;;;;;;;;5.00;4.50;;;;;;;;5105065;27;45517;-70
2021/12/05 15:19:25;;;;;;;;;3.00;3.00;;;;;;;;5110657;27;46540;-70
2021/12/05 15:21:51;;;;;;;;;7.25;5.00;;;;;;;;5103265;27;45509;-70
2021/12/05 15:24:16;;;;;;;;;4.00;4.00;;;;;;;;5106707;27;45970;-72
2021/12/05 15:26:42;;;;;;;;;4.25;4.25;;;;;;;;5110091;27;45389;-71
2021/12/05 15:29:07;;;;;;;;;6.75;6.75;;;;;;;;5114987;27;45626;-71
2021/12/05 15:31:38;;;;;;;;;27.25;26.75;;;;;;;;5112210;27;45467;-71
2021/12/05 15:34:16;;;;;;;;;42.75;36.75;;;;;;;;5094361;27;45495;-75
2021/12/05 15:36:41;;;;;;;;;32.75;28.50;;;;;;;;5112450;27;45523;-71
2021/12/05 15:39:11;;;;;;;;;18.75;18.75;;;;;;;;5104217;27;45968;-69
2021/12/05 15:41:36;;;;;;;;;16.75;16.75;;;;;;;;5098854;27;45397;-70
2021/12/05 15:44:01;;;;;;;;;11.25;11.25;;;;;;;;5104109;27;45385;-69
2021/12/05 15:46:27;;;;;;;;;9.50;9.50;;;;;;;;5087616;27;45600;-70
2021/12/05 15:48:54;;;;;;;;;10.00;10.00;;;;;;;;5091859;27;48244;-70
2021/12/05 15:51:21;;;;;;;;;7.25;7.00;;;;;;;;5106701;27;45494;-68
2021/12/05 15:53:47;;;;;;;;;8.75;7.25;;;;;;;;5105665;27;46003;-68
2021/12/05 15:56:16;;;;;;;;;4.50;4.50;;;;;;;;5084506;27;45357;-70
2021/12/05 15:58:44;;;;;;;;;6.75;6.75;;;;;;;;5090681;27;47553;-68
2021/12/05 16:01:12;;;;;;;;;11.75;9.75;;;;;;;;5107010;27;45570;-69
2021/12/05 16:03:44;;;;;;;;;4.50;4.50;;;;;;;;5109721;27;45325;-70
2021/12/05 16:06:10;;;;;;;;;9.00;8.50;;;;;;;;5104485;27;45625;-67
2021/12/05 16:08:35;;;;;;;;;9.25;9.25;;;;;;;;5111131;27;45831;-68
2021/12/05 16:11:01;;;;;;;;;9.00;9.00;;;;;;;;5115467;27;45537;-68
2021/12/05 16:13:32;;;;;;;;;7.50;6.75;;;;;;;;5085960;27;45563;-69
2021/12/05 16:16:06;;;;;;;;;9.00;8.75;;;;;;;;5109322;27;45558;-67
2021/12/05 16:18:33;;;;;;;;;8.00;8.00;;;;;;;;5109186;27;45407;-70
2021/12/05 16:21:05;;;;;;;;;12.50;10.50;;;;;;;;5113970;27;45507;-69
2021/12/05 16:23:31;;;;;;;;;8.75;8.75;;;;;;;;5111138;27;45432;-70
2021/12/05 16:26:04;;;;;;;;;9.75;9.00;;;;;;;;5087975;27;45506;-71
2021/12/05 16:28:35;;;;;;;;;11.00;10.75;;;;;;;;5102215;27;45580;-71
2021/12/05 16:31:09;;;;;;;;;19.25;19.25;;;;;;;;5111513;27;45524;-73
2021/12/05 16:33:34;;;;;;;;;19.75;15.00;;;;;;;;5078739;27;45540;-74
2021/12/05 16:36:00;;;;;;;;;15.50;13.00;;;;;;;;5103882;27;45546;-72
2021/12/05 16:38:33;;;;;;;;;13.00;11.00;;;;;;;;5099668;27;45538;-72
2021/12/05 16:41:04;;;;;;;;;10.25;10.25;;;;;;;;5084909;27;46311;-72
2021/12/05 16:43:31;;;;;;;;;11.00;11.00;;;;;;;;5106687;27;45602;-71
2021/12/05 16:46:15;;;;;;;;;18.50;17.25;;;;;;;;5110138;27;45440;-70
2021/12/05 16:48:42;;;;;;;;;15.75;14.75;;;;;;;;5091356;27;48725;-71
2021/12/05 16:51:12;;;;;;;;;10.00;8.25;;;;;;;;5106987;27;45551;-73
2021/12/05 16:53:43;;;;;;;;;20.00;16.50;;;;;;;;5092365;27;45428;-74
2021/12/05 16:56:10;;;;;;;;;8.75;8.00;;;;;;;;5111758;27;45398;-70
2021/12/05 16:58:36;;;;;;;;;10.00;10.00;;;;;;;;5106927;27;45363;-70
2021/12/05 17:01:01;;;;;;;;;13.25;11.50;;;;;;;;5084680;27;45488;-70
2021/12/05 17:03:28;;;;;;;;;18.00;16.00;;;;;;;;5092167;27;45422;-70
2021/12/05 17:05:59;;;;;;;;;15.75;15.75;;;;;;;;5098460;27;45341;-70
2021/12/05 17:08:25;;;;;;;;;16.25;15.25;;;;;;;;5104242;27;45837;-70
2021/12/05 17:11:09;;;;;;;;;17.50;16.00;;;;;;;;5100788;27;45554;-72
2021/12/05 17:13:37;;;;;;;;;17.00;15.25;;;;;;;;5106171;27;45378;-71
2021/12/05 17:16:11;;;;;;;;;16.00;12.25;;;;;;;;5089424;27;45531;-70
2021/12/05 17:18:42;;;;;;;;;22.75;17.00;;;;;;;;5100047;27;45780;-69
2021/12/05 17:21:07;;;;;;;;;10.50;9.50;;;;;;;;5102381;27;45352;-70
2021/12/05 17:23:33;;;;;;;;;8.00;8.00;;;;;;;;5100446;27;45380;-71
2021/12/05 17:26:16;;;;;;;;;10.00;10.00;;;;;;;;5082124;27;45638;-68
2021/12/05 17:28:47;;;;;;;;;11.25;10.00;;;;;;;;5103562;27;45358;-71
2021/12/05 17:31:14;;;;;;;;;12.00;12.00;;;;;;;;5085666;27;45559;-69
2021/12/05 17:33:41;;;;;;;;;14.00;14.00;;;;;;;;5102320;27;45405;-69
2021/12/05 17:36:15;;;;;;;;;20.00;20.00;;;;;;;;5096566;27;45591;-69
2021/12/05 17:38:40;;;;;;;;;14.75;14.75;;;;;;;;5087865;27;47570;-69
2021/12/05 17:41:05;;;;;;;;;17.00;16.50;;;;;;;;5088695;27;45952;-74
2021/12/05 17:43:31;;;;;;;;;15.00;14.75;;;;;;;;5106248;27;45519;-71
2021/12/05 17:45:56;;;;;;;;;18.25;17.00;;;;;;;;5086507;27;45484;-70
2021/12/05 17:48:21;;;;;;;;;24.25;24.25;;;;;;;;5099471;27;46223;-68
2021/12/05 17:50:50;;;;;;;;;43.25;39.00;;;;;;;;5080907;27;45449;-69
2021/12/05 17:53:15;;;;;;;;;28.50;24.00;;;;;;;;5091912;27;45455;-73
2021/12/05 17:55:45;;;;;;;;;16.25;14.75;;;;;;;;5110794;27;45452;-69
2021/12/05 17:58:33;;;;;;;;;19.00;19.00;;;;;;;;5108512;27;45452;-69
2021/12/05 18:02:41;;;;;;;;;18.25;17.25;;;;;;;;5087504;27;45447;-68
2021/12/05 18:03:44;;;;;;;;;15.00;15.00;;;;;;;;5100545;27;45551;-70
2021/12/05 18:06:09;;;;;;;;;21.25;19.75;;;;;;;;5101456;27;45333;-69
2021/12/05 18:08:36;;;;;;;;;16.75;15.25;;;;;;;;5094305;27;47416;-67
2021/12/05 18:11:10;;;;;;;;;19.25;19.00;;;;;;;;5090067;27;45523;-68
2021/12/05 18:13:37;;;;;;;;;16.75;15.50;;;;;;;;5103159;27;45539;-69
2021/12/05 18:16:05;;;;;;;;;13.50;13.50;;;;;;;;5106326;27;45575;-69
2021/12/05 18:18:31;;;;;;;;;76.50;59.25;;;;;;;;5110061;27;45645;-67
2021/12/05 18:20:59;;;;;;;;;43.25;38.25;;;;;;;;5114418;27;45405;-70
2021/12/05 18:23:25;;;;;;;;;42.50;37.50;;;;;;;;5078266;27;45454;-70
2021/12/05 18:25:50;;;;;;;;;32.00;32.00;;;;;;;;5102968;27;45573;-69
2021/12/05 18:28:16;;;;;;;;;23.00;22.00;;;;;;;;5084284;27;47797;-69
2021/12/05 18:30:41;;;;;;;;;25.00;20.25;;;;;;;;5101120;27;45394;-70
2021/12/05 18:33:08;;;;;;;;;25.25;21.75;;;;;;;;5114953;27;45475;-69
2021/12/05 18:35:33;;;;;;;;;17.50;16.75;;;;;;;;5088615;27;45937;-69
2021/12/05 18:38:06;;;;;;;;;21.25;17.00;;;;;;;;5108747;27;45560;-66
2021/12/05 18:40:31;;;;;;;;;18.00;17.25;;;;;;;;5108600;27;45463;-67
2021/12/05 18:42:58;;;;;;;;;11.00;9.50;;;;;;;;5111302;27;45601;-66
2021/12/05 18:45:25;;;;;;;;;22.75;21.00;;;;;;;;5095787;27;45643;-68
2021/12/05 18:47:50;;;;;;;;;22.00;21.50;;;;;;;;5079323;27;48488;-69
2021/12/05 18:50:15;;;;;;;;;19.00;16.75;;;;;;;;5084107;27;45702;-69
2021/12/05 18:52:41;;;;;;;;;17.50;17.50;;;;;;;;5089784;27;45445;-67
2021/12/05 18:55:08;;;;;;;;;16.00;16.00;;;;;;;;5112565;27;45534;-69
2021/12/05 18:57:34;;;;;;;;;20.75;20.75;;;;;;;;5114488;27;45549;-70
2021/12/05 19:00:09;;;;;;;;;21.00;19.00;;;;;;;;5101567;27;45712;-69
2021/12/05 19:05:30;;;;;;;;;25.00;21.25;;;;;;;;5109964;27;45442;-67
2021/12/05 19:08:16;;;;;;;;;22.75;21.50;;;;;;;;5081517;27;48419;-71
2021/12/05 19:13:26;;;;;;;;;31.25;29.75;;;;;;;;5112962;27;46210;-67
2021/12/05 19:15:53;;;;;;;;;18.50;16.00;;;;;;;;5082166;27;45780;-68
2021/12/05 19:18:18;;;;;;;;;26.50;26.50;;;;;;;;5111804;27;45658;-68
2021/12/05 19:20:44;;;;;;;;;16.50;15.50;;;;;;;;5114478;27;45566;-70
2021/12/05 19:23:09;;;;;;;;;24.25;22.25;;;;;;;;5094277;27;45551;-69
2021/12/05 19:25:36;;;;;;;;;21.75;20.75;;;;;;;;5114963;27;45321;-69
2021/12/05 19:28:02;;;;;;;;;20.00;20.00;;;;;;;;5093339;27;48697;-68
2021/12/05 19:30:37;;;;;;;;;17.75;16.75;;;;;;;;5088791;27;45558;-69
2021/12/05 19:33:05;;;;;;;;;12.25;12.25;;;;;;;;5087183;27;46045;-69
2021/12/05 19:35:32;;;;;;;;;23.25;21.75;;;;;;;;5110270;27;45618;-74
2021/12/05 19:37:57;;;;;;;;;22.00;19.50;;;;;;;;5092722;27;47756;-74
2021/12/05 19:40:25;;;;;;;;;30.25;28.50;;;;;;;;5094174;27;45393;-77
2021/12/05 19:42:51;;;;;;;;;30.50;24.50;;;;;;;;5081771;27;45477;-69
2021/12/05 19:45:16;;;;;;;;;22.00;22.00;;;;;;;;5107906;27;45547;-69
2021/12/05 19:47:42;;;;;;;;;21.75;20.25;;;;;;;;5103925;27;46330;-75
2021/12/05 19:50:09;;;;;;;;;30.00;27.50;;;;;;;;5082091;27;46202;-72
2021/12/05 19:52:34;;;;;;;;;21.00;18.25;;;;;;;;5079364;27;45474;-75
2021/12/05 19:55:00;;;;;;;;;20.50;17.75;;;;;;;;5111710;27;45529;-74
2021/12/05 19:57:26;;;;;;;;;18.50;17.25;;;;;;;;5111794;27;45688;-73
2021/12/05 19:59:51;;;;;;;;;15.50;15.00;;;;;;;;5088098;27;45591;-72
2021/12/05 20:02:17;;;;;;;;;15.50;15.00;;;;;;;;5106240;27;45510;-70